Time;durP1;ratioP1;P1;durP2;ratioP2;P2;SDS_P1;SDS_P2;PMS_P1;PMS_P2;Temp;Humidity;BMP_temperature;BMP_pressure;BME280_temperature;BME280_humidity;BME280_pressure;Samples;Min_cycle;Max_cycle;Signal;HPM_P1;HPM_P2
2021/04/26 00:01:51;;;;;;;5.97;2.10;;;205.30;1561.60;;;;;;5033565;28;20021;-72
2021/04/26 00:04:17;;;;;;;5.22;2.35;;;205.20;1561.60;;;;;;5035945;28;20021;-71
2021/04/26 00:06:43;;;;;;;8.68;3.05;;;205.20;1561.60;;;;;;5036199;28;20021;-71
2021/04/26 00:09:09;;;;;;;6.18;2.55;;;205.10;1587.20;;;;;;5034857;28;20426;-73
2021/04/26 00:11:35;;;;;;;6.28;2.58;;;205.10;1612.80;;;;;;5035474;28;20025;-71
2021/04/26 00:14:01;;;;;;;5.43;2.78;;;205.00;1612.80;;;;;;5036101;28;20028;-71
2021/04/26 00:16:27;;;;;;;5.82;2.97;;;205.00;1612.80;;;;;;5035688;28;20394;-73
2021/04/26 00:18:53;;;;;;;4.93;2.70;;;204.90;1612.80;;;;;;5035517;28;20029;-70
2021/04/26 00:21:18;;;;;;;4.18;2.58;;;204.90;1612.80;;;;;;5036070;28;20067;-71
2021/04/26 00:23:44;;;;;;;4.38;2.70;;;204.90;1638.40;;;;;;5035922;28;20028;-72
2021/04/26 00:26:11;;;;;;;6.65;2.40;;;204.80;1638.40;;;;;;5035379;28;20091;-70
2021/04/26 00:28:37;;;;;;;4.60;2.08;;;204.80;1638.40;;;;;;5035609;28;20028;-71
2021/04/26 00:31:03;;;;;;;4.28;2.10;;;204.80;1638.40;;;;;;5035932;28;20325;-72
2021/04/26 00:33:29;;;;;;;8.63;2.90;;;180.10;1638.40;;;;;;5035309;28;20525;-72
2021/04/26 00:35:55;;;;;;;5.03;2.60;;;180.10;1638.40;;;;;;5035530;28;20025;-71
2021/04/26 00:38:21;;;;;;;7.63;2.15;;;204.80;1638.40;;;;;;5035526;28;20310;-71
2021/04/26 00:40:47;;;;;;;5.25;2.22;;;180.10;1638.40;;;;;;5035762;28;20030;-72
2021/04/26 00:43:12;;;;;;;7.93;2.10;;;180.10;1664.00;;;;;;5035862;28;20025;-71
2021/04/26 00:45:38;;;;;;;5.97;2.08;;;180.00;1664.00;;;;;;5035478;28;20025;-72
2021/04/26 00:48:04;;;;;;;5.75;2.25;;;180.00;1664.00;;;;;;5035703;28;20053;-71
2021/04/26 00:50:32;;;;;;;8.98;2.42;;;180.00;1664.00;;;;;;5035675;28;20466;-72
2021/04/26 00:53:00;;;;;;;6.05;2.50;;;180.00;1664.00;;;;;;5035126;28;20044;-71
2021/04/26 00:55:34;;;;;;;8.32;2.40;;;180.00;1664.00;;;;;;5035093;28;20430;-70
2021/04/26 00:58:02;;;;;;;5.35;2.10;;;179.90;1689.60;;;;;;5033999;28;20056;-71
2021/04/26 01:00:29;;;;;;;5.63;2.45;;;179.90;1689.60;;;;;;5035280;28;20025;-71
2021/04/26 01:02:55;;;;;;;5.93;2.15;;;179.90;1689.60;;;;;;5035617;28;20037;-70
2021/04/26 01:05:25;;;;;;;6.05;2.50;;;179.80;1689.60;;;;;;5035616;28;20034;-72
2021/04/26 01:07:51;;;;;;;10.82;3.08;;;179.90;1689.60;;;;;;5035195;28;20028;-72
2021/04/26 01:10:21;;;;;;;5.53;2.15;;;179.90;1689.60;;;;;;5035284;28;20021;-71
2021/04/26 01:13:04;;;;;;;4.53;2.17;;;179.80;1689.60;;;;;;5035114;28;20029;-73
2021/04/26 01:15:45;;;;;;;4.60;2.42;;;179.90;1689.60;;;;;;5035262;28;20419;-70
2021/04/26 01:18:24;;;;;;;7.22;2.53;;;179.80;1689.60;;;;;;5035474;28;20075;-71
2021/04/26 01:21:04;;;;;;;4.93;2.67;;;179.80;1715.20;;;;;;5037864;28;20017;-71
2021/04/26 01:24:03;;;;;;;4.60;2.53;;;179.80;1715.20;;;;;;5038860;28;20429;-71
2021/04/26 01:26:55;;;;;;;3.72;2.30;;;179.80;1689.60;;;;;;5038817;28;20434;-72
2021/04/26 01:29:23;;;;;;;7.20;2.33;;;179.70;1715.20;;;;;;5036579;28;20045;-72
2021/04/26 01:31:55;;;;;;;6.97;2.97;;;179.70;1715.20;;;;;;5038915;28;20068;-71
2021/04/26 01:34:26;;;;;;;5.47;2.60;;;179.70;1715.20;;;;;;5038421;28;20021;-71
2021/04/26 01:36:54;;;;;;;8.25;2.70;;;179.70;1715.20;;;;;;5036332;28;20482;-70
2021/04/26 01:39:20;;;;;;;6.78;3.33;;;179.70;1740.80;;;;;;5038800;28;20033;-70
2021/04/26 01:41:47;;;;;;;5.60;3.05;;;179.60;1740.80;;;;;;5037894;28;20573;-72
2021/04/26 01:44:14;;;;;;;13.23;3.53;;;179.60;1740.80;;;;;;5038710;28;20335;-71
2021/04/26 01:46:43;;;;;;;7.50;3.63;;;179.60;1715.20;;;;;;5038299;28;20049;-72
2021/04/26 01:49:11;;;;;;;7.25;3.95;;;179.70;1715.20;;;;;;5038244;28;20033;-71
2021/04/26 01:51:39;;;;;;;10.68;3.80;;;179.60;1740.80;;;;;;5038570;28;20025;-72
2021/04/26 01:54:05;;;;;;;7.07;3.38;;;179.60;1740.80;;;;;;5038450;28;20099;-72
2021/04/26 01:56:35;;;;;;;6.10;3.13;;;179.50;1740.80;;;;;;5037943;28;20028;-71
2021/04/26 01:59:03;;;;;;;6.97;3.65;;;179.50;1740.80;;;;;;5038544;28;20017;-70
2021/04/26 02:01:29;;;;;;;7.20;2.58;;;179.20;1817.60;;;;;;5038376;28;20052;-71
2021/04/26 02:04:05;;;;;;;4.72;2.30;;;179.20;1792.00;;;;;;5037828;28;20022;-71
2021/04/26 02:06:32;;;;;;;6.95;2.97;;;179.20;1792.00;;;;;;5038310;28;20025;-72
2021/04/26 02:09:00;;;;;;;7.28;2.90;;;179.20;1792.00;;;;;;5038103;28;20030;-72
2021/04/26 02:11:26;;;;;;;5.60;2.90;;;179.20;1817.60;;;;;;5037942;28;20381;-73
2021/04/26 02:13:53;;;;;;;7.35;3.60;;;154.40;1843.20;;;;;;5035189;28;20024;-71
2021/04/26 02:16:20;;;;;;;6.38;3.13;;;154.40;1843.20;;;;;;5037873;28;20029;-72
2021/04/26 02:18:46;;;;;;;5.75;3.00;;;154.40;1817.60;;;;;;5037749;28;20389;-71
2021/04/26 02:21:12;;;;;;;6.55;2.75;;;154.50;1792.00;;;;;;5035157;28;20057;-72
2021/04/26 02:23:38;;;;;;;5.93;3.13;;;179.20;1766.40;;;;;;5037647;28;20049;-71
2021/04/26 02:26:04;;;;;;;5.07;2.50;;;179.20;1792.00;;;;;;5037939;28;20128;-72
2021/04/26 02:28:31;;;;;;;6.53;3.05;;;179.20;1817.60;;;;;;5037778;28;20025;-71
2021/04/26 02:30:59;;;;;;;5.78;2.50;;;179.20;1817.60;;;;;;5036639;28;20104;-71
2021/04/26 02:33:39;;;;;;;6.47;2.95;;;154.50;1817.60;;;;;;5037763;28;20335;-71
2021/04/26 02:36:19;;;;;;;5.32;2.35;;;154.40;1843.20;;;;;;5036574;28;20411;-72
2021/04/26 02:38:51;;;;;;;7.25;3.20;;;154.30;1868.80;;;;;;5035970;28;20414;-72
2021/04/26 02:41:20;;;;;;;8.13;3.33;;;154.20;1894.40;;;;;;5035567;28;20032;-70
2021/04/26 02:43:59;;;;;;;6.82;3.47;;;154.20;1894.40;;;;;;5037514;28;20044;-72
2021/04/26 02:46:27;;;;;;;9.53;3.57;;;154.20;1894.40;;;;;;5035568;28;20114;-71
2021/04/26 02:48:53;;;;;;;7.93;4.07;;;154.20;1920.00;;;;;;5034882;28;20037;-71
2021/04/26 02:51:21;;;;;;;8.73;3.75;;;154.20;1920.00;;;;;;5036960;28;20028;-72
2021/04/26 02:53:51;;;;;;;8.07;3.33;;;154.10;1945.60;;;;;;5037031;28;20619;-73
2021/04/26 02:56:19;;;;;;;7.32;3.03;;;154.00;1920.00;;;;;;5035364;28;20021;-71
2021/04/26 02:58:49;;;;;;;5.25;2.60;;;154.10;1920.00;;;;;;5037003;28;20033;-71
2021/04/26 03:01:15;;;;;;;5.05;2.63;;;154.10;1920.00;;;;;;5034886;28;20033;-72
2021/04/26 03:03:43;;;;;;;5.68;2.72;;;154.10;1920.00;;;;;;5036932;28;20018;-70
2021/04/26 03:06:10;;;;;;;31.15;4.85;;;154.00;1945.60;;;;;;5036786;28;20029;-71
2021/04/26 03:08:36;;;;;;;5.95;3.83;;;154.00;1945.60;;;;;;5037066;28;20025;-72
2021/04/26 03:11:12;;;;;;;8.55;3.60;;;153.80;1996.80;;;;;;5037097;28;20333;-71
2021/04/26 03:13:40;;;;;;;5.35;3.20;;;153.80;1945.60;;;;;;5034723;28;20339;-70
2021/04/26 03:16:07;;;;;;;5.30;2.95;;;153.80;1971.20;;;;;;5036618;28;20021;-73
2021/04/26 03:18:34;;;;;;;9.38;5.28;;;128.90;2022.40;;;;;;5036716;28;20358;-75
2021/04/26 03:21:03;;;;;;;13.57;6.07;;;128.90;2022.40;;;;;;5037386;28;20084;-72
2021/04/26 03:23:29;;;;;;;11.70;5.25;;;128.90;2048.00;;;;;;5038282;28;20443;-71
2021/04/26 03:25:57;;;;;;;9.60;4.80;;;128.90;2048.00;;;;;;5037937;28;20377;-72
2021/04/26 03:28:23;;;;;;;11.65;5.03;;;128.90;2048.00;;;;;;5036804;28;20426;-72
2021/04/26 03:30:50;;;;;;;10.10;5.32;;;128.90;2099.20;;;;;;5037541;28;20025;-71
2021/04/26 03:33:17;;;;;;;11.88;5.40;;;128.90;2073.60;;;;;;5037829;28;20128;-71
2021/04/26 03:35:44;;;;;;;10.80;5.43;;;128.90;2073.60;;;;;;5038046;28;20047;-71
2021/04/26 03:38:11;;;;;;;10.40;4.90;;;153.60;2073.60;;;;;;5037727;28;20056;-70
2021/04/26 03:40:38;;;;;;;10.82;4.75;;;153.60;2073.60;;;;;;5037545;28;20053;-72
2021/04/26 03:43:05;;;;;;;12.15;5.10;;;153.70;2073.60;;;;;;5036690;28;20033;-71
2021/04/26 03:45:31;;;;;;;8.68;4.10;;;153.70;2073.60;;;;;;5037125;28;20021;-71
2021/04/26 03:47:58;;;;;;;8.52;3.90;;;153.70;2073.60;;;;;;5036431;28;20393;-72
2021/04/26 03:50:25;;;;;;;10.80;3.60;;;153.70;2099.20;;;;;;5037412;28;20036;-73
2021/04/26 03:52:51;;;;;;;16.85;3.35;;;128.90;2124.80;;;;;;5037866;28;20100;-71
2021/04/26 03:55:23;;;;;;;6.93;3.28;;;128.90;2150.40;;;;;;5036820;28;20025;-72
2021/04/26 03:57:49;;;;;;;7.85;3.40;;;128.80;2150.40;;;;;;5037602;28;20029;-71
2021/04/26 04:00:17;;;;;;;7.45;3.22;;;128.90;2150.40;;;;;;5036826;28;20034;-71
2021/04/26 04:02:43;;;;;;;8.20;3.63;;;128.90;2150.40;;;;;;5036319;28;20018;-72
2021/04/26 04:05:10;;;;;;;6.95;3.20;;;128.90;2150.40;;;;;;5036838;28;20021;-73
2021/04/26 04:07:36;;;;;;;5.13;3.25;;;153.60;2150.40;;;;;;5036103;28;20380;-74
2021/04/26 04:10:07;;;;;;;6.18;3.25;;;153.60;2150.40;;;;;;5036339;28;20025;-73
2021/04/26 04:12:34;;;;;;;5.97;3.10;;;153.70;2150.40;;;;;;5034900;28;20021;-72
2021/04/26 04:15:00;;;;;;;7.65;3.85;;;153.80;2176.00;;;;;;5037470;28;20021;-71
2021/04/26 04:17:27;;;;;;;5.65;3.40;;;153.90;2176.00;;;;;;5036737;28;20040;-73
2021/04/26 04:19:53;;;;;;;5.93;3.13;;;153.90;2150.40;;;;;;5037041;28;20033;-72
2021/04/26 04:22:19;;;;;;;7.93;3.25;;;154.00;2124.80;;;;;;5036926;28;20300;-71
2021/04/26 04:24:45;;;;;;;7.88;4.05;;;154.10;2124.80;;;;;;5036617;28;20028;-73
2021/04/26 04:27:11;;;;;;;7.80;4.13;;;154.20;2124.80;;;;;;5037064;28;20108;-73
2021/04/26 04:29:37;;;;;;;10.45;4.05;;;154.20;2150.40;;;;;;5037079;28;20037;-71
2021/04/26 04:32:04;;;;;;;10.40;5.32;;;154.20;2150.40;;;;;;5037377;28;20025;-72
2021/04/26 04:34:29;;;;;;;8.82;4.38;;;154.30;2150.40;;;;;;5037222;28;20175;-72
2021/04/26 04:36:55;;;;;;;8.65;4.22;;;154.40;2150.40;;;;;;5036749;28;20067;-71
2021/04/26 04:39:22;;;;;;;5.68;3.55;;;154.40;2150.40;;;;;;5036736;28;20029;-71
2021/04/26 04:41:48;;;;;;;7.85;3.95;;;179.20;2124.80;;;;;;5037247;28;20017;-72
2021/04/26 04:44:13;;;;;;;11.75;4.85;;;179.30;2099.20;;;;;;5036946;28;20108;-73
2021/04/26 04:46:39;;;;;;;8.88;3.63;;;179.40;2099.20;;;;;;5036219;28;20054;-72
2021/04/26 04:49:05;;;;;;;8.85;3.28;;;179.50;2099.20;;;;;;5036820;28;20033;-72
2021/04/26 04:51:31;;;;;;;7.40;3.45;;;179.50;2099.20;;;;;;5036349;28;20022;-71
2021/04/26 04:53:57;;;;;;;8.02;3.65;;;179.60;2124.80;;;;;;5037209;28;20044;-72
2021/04/26 04:56:23;;;;;;;11.52;6.95;;;179.70;2099.20;;;;;;5040503;28;20048;-72
2021/04/26 04:58:51;;;;;;;13.15;4.10;;;180.00;2073.60;;;;;;5040516;28;20035;-70
2021/04/26 05:01:17;;;;;;;10.27;3.88;;;180.10;2022.40;;;;;;5023154;28;20036;-71
2021/04/26 05:03:43;;;;;;;9.65;4.13;;;204.80;2048.00;;;;;;5040647;28;20080;-73
2021/04/26 05:06:09;;;;;;;11.70;4.57;;;204.90;2048.00;;;;;;5040046;28;20029;-71
2021/04/26 05:08:35;;;;;;;7.70;4.13;;;204.90;2099.20;;;;;;5040171;28;20029;-70
2021/04/26 05:11:01;;;;;;;10.13;5.53;;;205.00;2099.20;;;;;;5039902;28;20079;-71
2021/04/26 05:13:27;;;;;;;11.95;4.30;;;204.90;2048.00;;;;;;5039915;28;20049;-71
2021/04/26 05:15:53;;;;;;;15.68;5.60;;;205.00;2048.00;;;;;;5040700;28;20033;-71
2021/04/26 05:18:19;;;;;;;10.88;5.25;;;205.10;2022.40;;;;;;5040110;28;20025;-71
2021/04/26 05:20:45;;;;;;;8.65;4.38;;;205.20;2022.40;;;;;;5040295;28;20461;-74
2021/04/26 05:23:10;;;;;;;11.27;5.10;;;205.30;2048.00;;;;;;5039431;28;20025;-71
2021/04/26 05:25:37;;;;;;;10.60;5.78;;;205.30;2048.00;;;;;;5039338;28;20330;-71
2021/04/26 05:28:03;;;;;;;12.02;6.85;;;205.40;2073.60;;;;;;5039474;28;20338;-72
2021/04/26 05:30:31;;;;;;;12.45;6.57;;;205.50;2048.00;;;;;;5040015;28;20029;-71
2021/04/26 05:32:57;;;;;;;15.25;8.02;;;205.60;2073.60;;;;;;5039546;28;20025;-71
2021/04/26 05:35:23;;;;;;;16.77;9.25;;;205.60;2073.60;;;;;;5039035;28;20022;-73
2021/04/26 05:37:49;;;;;;;18.30;9.90;;;205.60;2124.80;;;;;;5040086;28;20208;-72
2021/04/26 05:40:16;;;;;;;25.98;10.50;;;205.40;2150.40;;;;;;5040060;28;20130;-71
2021/04/26 05:42:42;;;;;;;21.95;10.85;;;205.40;2176.00;;;;;;5040002;28;20021;-71
2021/04/26 05:45:08;;;;;;;20.60;9.70;;;205.30;2150.40;;;;;;5039591;28;20414;-71
2021/04/26 05:47:34;;;;;;;21.83;10.27;;;205.40;2176.00;;;;;;5039838;28;20060;-71
2021/04/26 05:50:00;;;;;;;16.98;9.55;;;205.50;2176.00;;;;;;5040082;28;20025;-71
2021/04/26 05:52:26;;;;;;;22.42;10.48;;;205.60;2124.80;;;;;;5039486;28;20079;-74
2021/04/26 05:54:52;;;;;;;18.83;11.07;;;205.60;2201.60;;;;;;5039370;28;20368;-72
2021/04/26 05:57:18;;;;;;;21.58;11.07;;;205.70;2201.60;;;;;;5038484;28;20017;-71
2021/04/26 05:59:44;;;;;;;21.05;10.45;;;230.50;2176.00;;;;;;5037655;28;20036;-70
2021/04/26 06:02:09;;;;;;;21.27;11.70;;;230.60;2073.60;;;;;;5037076;28;20429;-70
2021/04/26 06:04:35;;;;;;;20.67;11.10;;;230.80;2073.60;;;;;;5037826;28;20048;-71
2021/04/26 06:07:01;;;;;;;19.05;10.85;;;230.80;2124.80;;;;;;5035841;28;20028;-72
2021/04/26 06:09:27;;;;;;;24.58;11.73;;;230.80;2099.20;;;;;;5019550;28;20124;-71
2021/04/26 06:11:53;;;;;;;26.55;12.50;;;230.80;2124.80;;;;;;5036935;28;20033;-70
2021/04/26 06:14:19;;;;;;;24.15;13.48;;;230.90;2201.60;;;;;;5034638;28;20075;-71
2021/04/26 06:16:44;;;;;;;25.40;13.43;;;230.80;2176.00;;;;;;5037546;28;20025;-70
2021/04/26 06:19:10;;;;;;;23.83;13.55;;;230.90;2252.80;;;;;;5038579;28;20025;-70
2021/04/26 06:21:36;;;;;;;25.02;13.27;;;230.80;2252.80;;;;;;5038549;28;20026;-72
2021/04/26 06:24:02;;;;;;;22.85;12.60;;;231.00;2252.80;;;;;;5037784;28;20033;-70
2021/04/26 06:26:28;;;;;;;21.95;13.38;;;231.00;2252.80;;;;;;5037927;28;20070;-70
2021/04/26 06:28:54;;;;;;;20.00;12.50;;;231.20;2252.80;;;;;;5038088;28;20108;-70
2021/04/26 06:31:20;;;;;;;29.52;13.85;;;231.20;2252.80;;;;;;5037941;28;20025;-71
2021/04/26 06:33:46;;;;;;;24.10;12.55;;;256.00;2252.80;;;;;;5038444;28;20407;-70
2021/04/26 06:36:12;;;;;;;20.80;12.77;;;256.10;2252.80;;;;;;5038146;28;20025;-70
2021/04/26 06:38:38;;;;;;;25.25;13.25;;;256.20;2252.80;;;;;;5038633;28;20365;-72
2021/04/26 06:41:04;;;;;;;27.63;15.30;;;256.30;2252.80;;;;;;5038682;28;20025;-70
2021/04/26 06:43:30;;;;;;;24.58;10.77;;;256.60;2252.80;;;;;;5038759;28;20032;-71
2021/04/26 06:45:55;;;;;;;20.05;11.65;;;256.70;2150.40;;;;;;5038469;28;20104;-71
2021/04/26 06:48:23;;;;;;;28.88;12.82;;;256.80;2201.60;;;;;;5037948;28;20033;-70
2021/04/26 06:50:49;;;;;;;20.60;11.88;;;256.80;2201.60;;;;;;5037677;28;20021;-71
2021/04/26 06:53:15;;;;;;;26.45;13.13;;;256.80;2227.20;;;;;;5036948;28;20032;-69
2021/04/26 06:55:41;;;;;;;26.77;12.02;;;281.60;2278.40;;;;;;5036728;28;20052;-71
2021/04/26 06:58:07;;;;;;;19.15;10.50;;;281.70;2227.20;;;;;;5036924;28;20115;-69
2021/04/26 07:00:33;;;;;;;22.02;11.43;;;281.90;2176.00;;;;;;5037404;28;20092;-69
2021/04/26 07:02:59;;;;;;;17.38;10.77;;;281.90;2176.00;;;;;;5036882;28;20026;-70
2021/04/26 07:05:25;;;;;;;19.70;10.52;;;282.10;2176.00;;;;;;5037363;28;20025;-71
2021/04/26 07:07:51;;;;;;;26.70;12.50;;;282.10;2073.60;;;;;;5037134;28;20029;-71
2021/04/26 07:10:18;;;;;;;24.65;11.98;;;282.30;2201.60;;;;;;5037381;28;20036;-70
2021/04/26 07:12:43;;;;;;;18.55;11.63;;;282.40;2150.40;;;;;;5038286;28;20083;-70
2021/04/26 07:15:11;;;;;;;19.80;12.07;;;282.40;2150.40;;;;;;5038140;28;20033;-70
2021/04/26 07:17:38;;;;;;;19.50;11.50;;;282.40;2150.40;;;;;;5037429;28;20034;-72
2021/04/26 07:20:06;;;;;;;18.90;10.77;;;307.20;2150.40;;;;;;5038260;28;20056;-70
2021/04/26 07:22:32;;;;;;;27.20;11.80;;;307.20;2124.80;;;;;;5037642;28;20025;-71
2021/04/26 07:24:58;;;;;;;22.73;12.20;;;307.30;2150.40;;;;;;5037872;28;20040;-71
2021/04/26 07:27:24;;;;;;;17.98;10.18;;;307.40;2176.00;;;;;;5037440;28;20075;-69
2021/04/26 07:29:50;;;;;;;22.73;10.75;;;307.50;2150.40;;;;;;5037818;28;20087;-71
2021/04/26 07:32:16;;;;;;;19.48;11.23;;;307.70;2099.20;;;;;;5036893;28;20049;-73
2021/04/26 07:34:42;;;;;;;25.27;11.82;;;307.70;2201.60;;;;;;5037738;28;20061;-71
2021/04/26 07:37:08;;;;;;;16.15;10.65;;;307.70;2099.20;;;;;;5036979;28;20071;-70
2021/04/26 07:39:34;;;;;;;18.75;10.93;;;307.90;2150.40;;;;;;5037416;28;20032;-70
2021/04/26 07:42:00;;;;;;;20.67;11.23;;;307.80;2201.60;;;;;;5037589;28;20104;-70
2021/04/26 07:44:26;;;;;;;26.98;11.18;;;307.90;2150.40;;;;;;5037156;28;20025;-71
2021/04/26 07:46:53;;;;;;;16.95;10.80;;;307.90;2201.60;;;;;;5037213;28;20083;-69
2021/04/26 07:49:19;;;;;;;18.23;11.20;;;308.00;2176.00;;;;;;5037186;28;20037;-72
2021/04/26 07:51:45;;;;;;;22.10;10.20;;;332.80;2227.20;;;;;;5036453;28;20483;-70
2021/04/26 07:54:11;;;;;;;18.40;10.90;;;332.80;2201.60;;;;;;5036103;28;20100;-70
2021/04/26 07:56:37;;;;;;;17.08;11.15;;;332.90;2124.80;;;;;;5036564;28;20029;-70
2021/04/26 07:59:03;;;;;;;20.05;11.55;;;333.10;2124.80;;;;;;5036514;28;20122;-72
2021/04/26 08:01:29;;;;;;;15.90;9.20;;;333.20;2124.80;;;;;;5036081;28;20032;-71
2021/04/26 08:03:55;;;;;;;15.93;10.95;;;333.20;2073.60;;;;;;5035925;28;20029;-68
2021/04/26 08:06:20;;;;;;;18.27;11.10;;;333.20;2048.00;;;;;;5035744;28;20079;-70
2021/04/26 08:08:46;;;;;;;16.98;10.68;;;333.40;2176.00;;;;;;5036057;28;20453;-69
2021/04/26 08:11:12;;;;;;;18.63;10.27;;;333.50;2099.20;;;;;;5035802;28;20430;-70
2021/04/26 08:13:38;;;;;;;22.40;11.45;;;333.40;2073.60;;;;;;5035893;28;20026;-71
2021/04/26 08:16:04;;;;;;;17.38;8.32;;;333.40;2099.20;;;;;;5035603;28;20032;-70
2021/04/26 08:18:31;;;;;;;16.65;10.50;;;333.50;2048.00;;;;;;5036172;28;20037;-71
2021/04/26 08:20:57;;;;;;;19.95;10.98;;;333.40;2022.40;;;;;;5037000;28;20128;-71
2021/04/26 08:23:23;;;;;;;19.88;11.43;;;333.50;2022.40;;;;;;5035276;28;20025;-72
2021/04/26 08:25:49;;;;;;;23.42;12.80;;;333.40;2099.20;;;;;;5035875;28;20414;-70
2021/04/26 08:28:17;;;;;;;14.15;9.25;;;333.50;2048.00;;;;;;5035419;28;20033;-71
2021/04/26 08:30:43;;;;;;;17.67;10.33;;;333.50;2099.20;;;;;;5038624;28;20025;-69
2021/04/26 08:33:09;;;;;;;19.35;10.95;;;333.70;2048.00;;;;;;5039852;28;20080;-71
2021/04/26 08:35:35;;;;;;;23.85;11.90;;;358.40;2048.00;;;;;;5039600;28;20452;-70
2021/04/26 08:38:01;;;;;;;17.58;10.82;;;358.40;2022.40;;;;;;5039348;28;20029;-70
2021/04/26 08:40:26;;;;;;;18.00;11.13;;;358.40;2022.40;;;;;;5039067;28;20024;-71
2021/04/26 08:42:52;;;;;;;15.40;10.90;;;358.50;2022.40;;;;;;5038996;28;20022;-70
2021/04/26 08:45:19;;;;;;;14.75;9.70;;;358.60;2048.00;;;;;;5038520;28;20028;-71
2021/04/26 08:47:46;;;;;;;15.43;9.30;;;358.80;1971.20;;;;;;5038441;28;20049;-71
2021/04/26 08:50:12;;;;;;;16.80;10.10;;;358.70;1945.60;;;;;;5036256;28;20156;-71
2021/04/26 08:52:41;;;;;;;14.13;8.98;;;358.60;1971.20;;;;;;5038915;28;20026;-70
2021/04/26 08:55:08;;;;;;;;;;;359.00;1920.00;;;;;;5038857;28;20029;-71
2021/04/26 08:57:33;;;;;;;15.43;8.85;;;359.10;1971.20;;;;;;5038772;28;20489;-70
2021/04/26 08:59:59;;;;;;;14.90;8.48;;;358.90;1894.40;;;;;;5039194;28;20032;-72
2021/04/26 09:02:25;;;;;;;14.95;8.40;;;358.80;1920.00;;;;;;5038719;28;20026;-71
2021/04/26 09:04:55;;;;;;;15.30;10.02;;;359.00;2022.40;;;;;;5036190;28;20022;-70
2021/04/26 09:07:22;;;;;;;15.75;9.55;;;359.10;1945.60;;;;;;5039241;28;20407;-70
2021/04/26 09:09:50;;;;;;;14.02;9.38;;;359.30;1996.80;;;;;;5038000;28;20134;-69
2021/04/26 09:12:22;;;;;;;13.40;9.18;;;359.20;1920.00;;;;;;5039115;28;20017;-71
2021/04/26 09:14:59;;;;;;;15.05;9.13;;;359.30;1920.00;;;;;;5020706;28;20029;-69
2021/04/26 09:17:25;;;;;;;14.35;8.40;;;359.20;1971.20;;;;;;5019460;28;20029;-73
2021/04/26 09:19:52;;;;;;;17.63;8.85;;;359.20;1945.60;;;;;;5019277;28;20477;-70
2021/04/26 09:22:47;;;;;;;15.30;8.35;;;359.20;1920.00;;;;;;5019796;28;20029;-71
2021/04/26 09:25:25;;;;;;;15.60;8.57;;;359.30;1945.60;;;;;;5019963;28;20312;-70
2021/04/26 09:28:00;;;;;;;18.42;9.43;;;384.30;1894.40;;;;;;5020187;28;20419;-73
2021/04/26 09:30:42;;;;;;;11.73;7.80;;;384.50;1920.00;;;;;;5020205;28;20030;-70
2021/04/26 09:33:15;;;;;;;15.75;7.85;;;384.40;1843.20;;;;;;5019876;28;20030;-70
2021/04/26 09:35:43;;;;;;;13.75;7.38;;;384.40;1843.20;;;;;;5020433;28;20076;-70
2021/04/26 09:38:48;;;;;;;10.80;7.72;;;384.50;1843.20;;;;;;5020058;28;20026;-71
2021/04/26 09:41:16;;;;;;;12.32;7.35;;;384.80;1843.20;;;;;;4978784;28;20045;-71
2021/04/26 09:43:45;;;;;;;14.63;8.40;;;409.60;1843.20;;;;;;4983357;28;20036;-70
2021/04/26 09:46:12;;;;;;;12.60;7.30;;;384.70;1868.80;;;;;;4996085;28;20558;-71
2021/04/26 09:48:38;;;;;;;14.23;7.93;;;409.60;1792.00;;;;;;4996928;28;20043;-70
2021/04/26 09:51:17;;;;;;;12.38;6.63;;;409.80;1766.40;;;;;;4997331;28;20030;-72
2021/04/26 09:53:43;;;;;;;13.15;7.97;;;410.00;1715.20;;;;;;4997775;28;20034;-69
2021/04/26 09:56:15;;;;;;;10.65;7.18;;;410.00;1740.80;;;;;;4997348;28;20030;-72
2021/04/26 09:58:42;;;;;;;11.45;7.00;;;410.00;1894.40;;;;;;4995560;28;20034;-73
2021/04/26 10:01:09;;;;;;;11.90;6.30;;;409.90;1766.40;;;;;;4998032;28;20034;-73
2021/04/26 10:03:35;;;;;;;13.02;8.10;;;410.10;1843.20;;;;;;4997987;28;20037;-72
2021/04/26 10:06:01;;;;;;;12.90;6.85;;;410.30;1715.20;;;;;;4997431;28;20038;-72
2021/04/26 10:08:27;;;;;;;16.67;7.15;;;410.20;1766.40;;;;;;4997443;28;20034;-72
2021/04/26 10:10:54;;;;;;;13.40;8.05;;;435.20;1715.20;;;;;;4999917;28;20026;-73
2021/04/26 10:13:21;;;;;;;14.75;8.63;;;410.50;1689.60;;;;;;5038701;28;20026;-72
2021/04/26 10:15:58;;;;;;;11.35;7.10;;;435.20;1689.60;;;;;;5039435;28;20026;-72
2021/04/26 10:18:35;;;;;;;16.55;8.10;;;410.50;1689.60;;;;;;5039194;28;20110;-73
2021/04/26 10:21:03;;;;;;;11.25;7.13;;;435.20;1664.00;;;;;;5038937;28;20315;-72
2021/04/26 10:23:40;;;;;;;11.07;6.20;;;435.20;1664.00;;;;;;5038875;28;20021;-73
2021/04/26 10:26:07;;;;;;;11.50;6.70;;;410.50;1664.00;;;;;;5039039;28;20421;-72
2021/04/26 10:28:35;;;;;;;10.57;6.70;;;435.30;1664.00;;;;;;5038575;28;20438;-73
2021/04/26 10:31:13;;;;;;;12.35;7.05;;;435.60;1689.60;;;;;;5038624;28;20026;-73
2021/04/26 10:33:59;;;;;;;11.45;6.50;;;435.60;1638.40;;;;;;5038570;28;20028;-72
2021/04/26 10:36:40;;;;;;;12.40;6.53;;;435.60;1638.40;;;;;;5038201;28;20022;-73
2021/04/26 10:39:11;;;;;;;12.35;6.75;;;435.50;1638.40;;;;;;5038659;28;20468;-73
2021/04/26 10:41:50;;;;;;;14.10;5.82;;;435.40;1638.40;;;;;;5038269;28;20372;-73
2021/04/26 10:44:35;;;;;;;;;;;435.60;1587.20;;;;;;5037297;28;20457;-73
2021/04/26 10:47:18;;;;;;;14.95;6.32;;;435.90;1561.60;;;;;;5037580;28;19921;-73
2021/04/26 10:49:45;;;;;;;11.30;6.25;;;435.70;1587.20;;;;;;5037919;28;20037;-73
2021/04/26 10:52:29;;;;;;;13.98;5.90;;;436.00;1612.80;;;;;;5036787;28;20025;-71
2021/04/26 10:55:10;;;;;;;11.75;6.30;;;436.00;1484.80;;;;;;5032460;28;20414;-71
2021/04/26 10:57:48;;;;;;;13.50;6.53;;;460.80;1561.60;;;;;;5037112;28;20021;-72
2021/04/26 11:00:32;;;;;;;12.65;6.47;;;461.10;1510.40;;;;;;5037039;28;20032;-72
2021/04/26 11:03:11;;;;;;;11.98;6.32;;;461.10;1484.80;;;;;;5034083;28;20025;-73
2021/04/26 11:05:37;;;;;;;;;;;461.00;1510.40;;;;;;5037971;28;20065;-73
2021/04/26 11:10:51;;;;;;;13.57;6.20;;;436.10;1484.80;;;;;;5037793;28;20032;-72
2021/04/26 11:13:35;;;;;;;12.95;6.40;;;461.10;1484.80;;;;;;5037818;28;20025;-71
2021/04/26 11:16:17;;;;;;;9.60;6.35;;;461.20;1484.80;;;;;;5038357;28;20029;-71
2021/04/26 11:19:00;;;;;;;20.13;7.10;;;461.60;1484.80;;;;;;5037787;28;20091;-72
2021/04/26 11:21:46;;;;;;;14.20;6.22;;;461.70;1536.00;;;;;;5037637;28;20402;-71
2021/04/26 11:24:26;;;;;;;10.88;6.72;;;486.60;1433.60;;;;;;5038096;28;20025;-71
2021/04/26 11:27:13;;;;;;;11.55;6.78;;;486.40;1408.00;;;;;;5037501;28;20022;-72
2021/04/26 11:29:45;;;;;;;9.07;5.87;;;461.60;1408.00;;;;;;5037005;28;20350;-73
2021/04/26 11:32:13;;;;;;;11.65;6.13;;;486.50;1408.00;;;;;;5037631;28;20411;-70
2021/04/26 11:34:47;;;;;;;11.45;5.78;;;486.70;1382.40;;;;;;5036738;28;20426;-73
2021/04/26 11:37:19;;;;;;;10.38;6.22;;;486.70;1305.60;;;;;;5037685;28;20468;-72
2021/04/26 11:39:46;;;;;;;10.35;5.45;;;487.30;1356.80;;;;;;5035656;28;20025;-71
2021/04/26 11:42:24;;;;;;;11.15;6.07;;;486.80;1382.40;;;;;;5035725;28;20370;-72
2021/04/26 11:44:51;;;;;;;9.77;5.97;;;486.90;1433.60;;;;;;5035855;28;20026;-71
2021/04/26 11:47:19;;;;;;;11.15;6.20;;;512.10;1382.40;;;;;;5035224;28;20052;-71
2021/04/26 11:49:47;;;;;;;12.23;5.90;;;512.50;1356.80;;;;;;5035548;28;20103;-73
2021/04/26 11:52:33;;;;;;;11.03;5.57;;;512.30;1382.40;;;;;;5035931;28;20042;-72
2021/04/26 11:55:05;;;;;;;9.65;5.63;;;487.10;1356.80;;;;;;5036510;28;20258;-72
2021/04/26 11:57:42;;;;;;;10.13;6.03;;;486.80;1382.40;;;;;;5036857;28;20087;-72
2021/04/26 12:00:33;;;;;;;13.37;5.57;;;512.10;1356.80;;;;;;5037242;28;20025;-72
2021/04/26 12:03:09;;;;;;;11.30;6.03;;;538.00;1305.60;;;;;;5029075;28;20037;-73
2021/04/26 12:05:35;;;;;;;10.32;5.97;;;563.70;1203.20;;;;;;5036878;28;20114;-72
2021/04/26 12:08:00;;;;;;;8.85;6.05;;;564.10;1152.00;;;;;;5035490;28;20033;-74
2021/04/26 12:10:31;;;;;;;12.18;7.70;;;589.50;1177.60;;;;;;5035170;28;20123;-75
2021/04/26 12:13:05;;;;;;;12.02;6.70;;;615.30;1024.00;;;;;;5035654;28;20681;-71
2021/04/26 12:15:33;;;;;;;15.65;7.43;;;615.30;1049.60;;;;;;5033583;28;20026;-71
2021/04/26 12:18:00;;;;;;;10.93;5.73;;;640.80;998.40;;;;;;5035655;28;20044;-73
2021/04/26 12:20:27;;;;;;;9.45;6.03;;;615.00;1024.00;;;;;;5036417;28;20441;-71
2021/04/26 12:23:00;;;;;;;9.57;6.15;;;665.70;972.80;;;;;;5036655;28;20029;-71